Time;durP1;ratioP1;P1;durP2;ratioP2;P2;SDS_P1;SDS_P2;PMS_P1;PMS_P2;Temp;Humidity;BMP_temperature;BMP_pressure;BME280_temperature;BME280_humidity;BME280_pressure;Samples;Min_cycle;Max_cycle;Signal;HPM_P1;HPM_P2
2022/09/26 00:02:19;;;;;;;57.67;30.60;;;6.50;99.90;;;;;;8384467;28;20181;-67
2022/09/26 00:06:21;;;;;;;52.07;29.67;;;6.60;99.90;;;;;;8380963;28;20187;-67
2022/09/26 00:10:22;;;;;;;37.47;22.43;;;6.60;99.90;;;;;;8381772;28;20196;-67
2022/09/26 00:14:25;;;;;;;34.87;20.80;;;6.50;99.90;;;;;;8382157;28;20221;-67
2022/09/26 00:18:26;;;;;;;30.60;19.37;;;6.50;99.90;;;;;;8379898;28;20549;-67
2022/09/26 00:22:28;;;;;;;26.90;15.33;;;6.50;99.90;;;;;;8380611;28;20395;-67
2022/09/26 00:26:31;;;;;;;29.07;15.97;;;6.40;99.90;;;;;;8383214;28;20247;-67
2022/09/26 00:30:34;;;;;;;26.33;15.53;;;6.40;99.90;;;;;;8383185;28;20185;-67
2022/09/26 00:34:35;;;;;;;30.37;15.90;;;6.30;99.90;;;;;;8402133;28;20221;-67
2022/09/26 00:38:37;;;;;;;22.70;15.30;;;6.30;99.90;;;;;;8395585;28;20220;-67
2022/09/26 00:42:37;;;;;;;17.43;12.37;;;6.30;99.90;;;;;;8382966;28;20180;-67
2022/09/26 00:46:45;;;;;;;16.83;12.43;;;6.20;99.90;;;;;;8380107;28;20308;-67
2022/09/26 00:50:47;;;;;;;20.27;13.07;;;6.20;99.90;;;;;;8375295;28;20195;-68
2022/09/26 00:54:53;;;;;;;18.13;12.90;;;6.10;99.90;;;;;;8378703;28;20177;-68
2022/09/26 00:59:10;;;;;;;19.57;11.90;;;6.00;99.90;;;;;;8382138;28;20262;-68
2022/09/26 01:03:14;;;;;;;19.83;13.90;;;5.90;99.90;;;;;;8379060;28;20182;-67
2022/09/26 01:07:22;;;;;;;24.97;15.13;;;5.90;99.90;;;;;;8372815;28;20250;-67
2022/09/26 01:11:23;;;;;;;17.47;11.60;;;6.00;99.90;;;;;;8380606;28;20545;-67
2022/09/26 01:15:24;;;;;;;18.03;10.97;;;6.20;99.90;;;;;;8396535;28;20280;-67
2022/09/26 01:19:34;;;;;;;15.67;11.60;;;6.40;99.90;;;;;;8377369;28;20205;-67
2022/09/26 01:23:53;;;;;;;15.33;11.30;;;6.70;99.90;;;;;;8382500;28;20177;-67
2022/09/26 01:28:09;;;;;;;15.40;11.03;;;7.00;99.90;;;;;;8382423;28;20205;-67
2022/09/26 01:32:48;;;;;;;13.87;9.10;;;7.00;99.90;;;;;;8374584;28;20289;-68
2022/09/26 01:37:06;;;;;;;13.33;9.83;;;7.00;99.90;;;;;;8374112;28;20562;-68
2022/09/26 01:41:16;;;;;;;16.07;11.97;;;7.00;99.90;;;;;;8394255;28;20177;-67
2022/09/26 01:45:21;;;;;;;15.00;11.00;;;7.20;99.90;;;;;;8398583;28;20181;-68
2022/09/26 01:49:29;;;;;;;20.03;11.77;;;7.40;99.90;;;;;;8385246;28;20185;-68
2022/09/26 01:53:39;;;;;;;16.67;11.87;;;7.60;99.90;;;;;;8381846;28;20207;-68
2022/09/26 01:58:19;;;;;;;16.57;12.73;;;7.80;99.90;;;;;;8376198;28;20198;-68
2022/09/26 02:02:28;;;;;;;17.23;12.63;;;7.80;99.90;;;;;;8361954;28;20193;-68
2022/09/26 02:06:38;;;;;;;23.70;13.73;;;7.80;99.90;;;;;;8385616;28;20191;-68
2022/09/26 02:11:11;;;;;;;17.77;12.53;;;7.60;99.90;;;;;;8386485;28;20181;-68
2022/09/26 02:15:16;;;;;;;16.40;10.90;;;7.60;99.90;;;;;;8386367;28;20189;-68
2022/09/26 02:19:58;;;;;;;18.40;13.33;;;7.70;99.90;;;;;;8388143;28;20209;-68
2022/09/26 02:24:00;;;;;;;22.30;15.27;;;7.80;99.90;;;;;;8396315;28;20219;-68
2022/09/26 02:28:02;;;;;;;21.63;14.70;;;8.00;99.90;;;;;;8392088;28;20200;-68
2022/09/26 02:32:11;;;;;;;18.17;14.17;;;8.20;99.90;;;;;;8387440;28;20817;-69
2022/09/26 02:36:13;;;;;;;17.90;12.17;;;8.30;99.90;;;;;;8380737;28;20177;-68
2022/09/26 02:40:19;;;;;;;16.80;12.30;;;8.20;99.90;;;;;;8387294;28;20209;-68
2022/09/26 02:44:29;;;;;;;15.57;12.87;;;8.00;99.90;;;;;;8387287;28;20212;-68
2022/09/26 02:48:53;;;;;;;16.47;13.67;;;8.00;99.90;;;;;;8379697;28;20186;-68
2022/09/26 02:52:59;;;;;;;14.47;11.07;;;8.10;99.90;;;;;;8375254;28;20186;-67
2022/09/26 02:57:25;;;;;;;12.50;9.70;;;8.10;99.90;;;;;;8387496;28;20207;-67
2022/09/26 03:01:33;;;;;;;10.33;8.13;;;8.10;99.90;;;;;;8383126;28;20185;-67
2022/09/26 03:05:38;;;;;;;11.17;8.67;;;8.10;99.90;;;;;;8386235;28;20182;-67
2022/09/26 03:09:41;;;;;;;9.90;8.40;;;8.10;99.90;;;;;;8385244;28;20221;-67
2022/09/26 03:13:44;;;;;;;12.57;9.90;;;8.10;99.90;;;;;;8383489;28;20220;-68
2022/09/26 03:17:51;;;;;;;11.13;9.07;;;8.20;99.90;;;;;;8382121;28;20201;-68
2022/09/26 03:21:53;;;;;;;11.30;9.07;;;8.30;99.90;;;;;;8380830;28;20182;-68
2022/09/26 03:26:03;;;;;;;13.37;9.67;;;8.30;99.90;;;;;;8383538;28;20231;-67
2022/09/26 03:30:04;;;;;;;12.83;10.83;;;8.40;99.90;;;;;;8401679;28;20187;-67
2022/09/26 03:34:05;;;;;;;16.53;12.33;;;8.60;99.90;;;;;;8382263;28;20183;-68
2022/09/26 03:38:06;;;;;;;15.13;12.77;;;8.70;99.90;;;;;;8385148;28;20209;-68
2022/09/26 03:42:07;;;;;;;15.47;13.57;;;8.80;99.90;;;;;;8383785;28;20257;-67
2022/09/26 03:46:10;;;;;;;19.07;14.70;;;8.90;99.90;;;;;;8382816;28;20205;-67
2022/09/26 03:50:10;;;;;;;17.07;13.67;;;9.00;99.90;;;;;;8386268;28;20181;-68
2022/09/26 03:54:12;;;;;;;18.03;15.60;;;9.10;99.90;;;;;;8384927;28;20188;-68
2022/09/26 03:58:14;;;;;;;20.70;15.13;;;9.20;99.90;;;;;;8384620;28;20262;-68
2022/09/26 04:02:16;;;;;;;19.60;16.00;;;9.30;99.90;;;;;;8385063;28;20173;-69
2022/09/26 04:06:18;;;;;;;18.83;16.10;;;9.30;99.90;;;;;;8395907;28;20181;-69
2022/09/26 04:10:19;;;;;;;20.13;16.10;;;9.40;99.90;;;;;;8382112;28;20187;-69
2022/09/26 04:14:20;;;;;;;21.73;17.03;;;9.40;99.90;;;;;;8379096;28;20220;-69
2022/09/26 04:18:21;;;;;;;19.10;15.70;;;9.50;99.90;;;;;;8380546;28;20304;-69
2022/09/26 04:22:22;;;;;;;19.73;16.40;;;9.50;99.90;;;;;;8382254;28;20395;-69
2022/09/26 04:26:23;;;;;;;20.97;16.93;;;9.50;99.90;;;;;;8396845;28;20181;-68
2022/09/26 04:30:24;;;;;;;22.07;17.07;;;9.50;99.90;;;;;;8402521;28;20192;-71
2022/09/26 04:34:25;;;;;;;24.67;18.73;;;9.60;99.90;;;;;;8385605;28;20189;-69
2022/09/26 04:38:33;;;;;;;23.33;18.30;;;9.60;99.90;;;;;;8386520;28;20292;-70
2022/09/26 04:42:35;;;;;;;23.93;19.43;;;9.70;99.90;;;;;;8383976;28;20197;-69
2022/09/26 04:46:36;;;;;;;27.93;20.70;;;9.70;99.90;;;;;;8399259;28;20181;-69
2022/09/26 04:50:37;;;;;;;26.10;19.67;;;9.70;99.90;;;;;;8384094;28;20300;-69
2022/09/26 04:54:38;;;;;;;25.60;20.13;;;9.80;99.90;;;;;;8382795;28;20264;-68
2022/09/26 04:58:42;;;;;;;27.57;21.07;;;9.80;99.90;;;;;;8383231;28;20213;-69
2022/09/26 05:02:47;;;;;;;27.53;20.37;;;9.80;99.90;;;;;;8385153;28;20191;-69
2022/09/26 05:06:48;;;;;;;25.20;20.30;;;9.80;99.90;;;;;;8380797;28;20170;-69
2022/09/26 05:10:53;;;;;;;32.27;20.60;;;9.90;99.90;;;;;;8381278;28;20185;-68
2022/09/26 05:14:55;;;;;;;29.43;21.07;;;9.90;99.90;;;;;;8379378;28;20217;-69
2022/09/26 05:18:56;;;;;;;27.13;21.13;;;9.90;99.90;;;;;;8379858;28;20209;-70
2022/09/26 05:22:58;;;;;;;28.17;21.47;;;9.90;99.90;;;;;;8382136;28;20188;-69
2022/09/26 05:26:59;;;;;;;28.87;21.57;;;9.90;99.90;;;;;;8379932;28;20185;-69
2022/09/26 05:31:01;;;;;;;31.73;21.23;;;9.90;99.90;;;;;;8379491;28;20358;-70
2022/09/26 05:35:04;;;;;;;29.67;22.27;;;10.00;99.90;;;;;;8396930;28;20177;-68
2022/09/26 05:40:55;;;;;;;31.37;21.87;;;10.00;99.90;;;;;;8380977;28;20217;-69
2022/09/26 05:43:34;;;;;;;34.70;23.03;;;10.00;99.90;;;;;;8379763;28;20499;-69
2022/09/26 05:47:36;;;;;;;33.30;22.57;;;10.10;99.90;;;;;;8378205;28;20192;-70
2022/09/26 05:51:40;;;;;;;32.33;23.07;;;10.10;99.90;;;;;;8382623;28;20186;-70
2022/09/26 05:55:47;;;;;;;30.07;20.07;;;10.10;99.90;;;;;;8382432;28;20271;-69
2022/09/26 05:59:48;;;;;;;33.53;21.33;;;10.10;99.90;;;;;;8382833;28;20207;-70
2022/09/26 06:03:49;;;;;;;37.73;22.63;;;10.20;99.90;;;;;;8382159;28;20182;-70
2022/09/26 06:07:51;;;;;;;28.40;18.93;;;10.20;99.90;;;;;;8380270;28;20189;-70
2022/09/26 06:11:52;;;;;;;33.63;21.03;;;10.30;99.90;;;;;;8377560;28;20208;-70
2022/09/26 06:15:53;;;;;;;26.13;19.10;;;10.30;99.90;;;;;;8376608;28;20197;-70
2022/09/26 06:19:54;;;;;;;28.93;20.67;;;10.30;99.90;;;;;;8378604;28;20205;-70
2022/09/26 06:23:55;;;;;;;29.80;19.83;;;10.30;99.90;;;;;;8374617;28;20170;-70
2022/09/26 06:27:57;;;;;;;28.07;18.97;;;10.30;99.90;;;;;;8376532;28;20185;-70
2022/09/26 06:31:58;;;;;;;29.77;21.67;;;10.40;99.90;;;;;;8379476;28;20246;-70
2022/09/26 06:36:00;;;;;;;31.73;20.27;;;10.40;99.90;;;;;;8380320;28;20186;-70
2022/09/26 06:40:04;;;;;;;32.17;20.10;;;10.40;99.90;;;;;;8374691;28;20531;-70
2022/09/26 06:44:05;;;;;;;29.17;20.57;;;10.50;99.90;;;;;;8380311;28;20286;-70
2022/09/26 06:48:06;;;;;;;30.83;20.10;;;10.60;99.90;;;;;;8385368;28;20181;-73
2022/09/26 06:52:07;;;;;;;31.73;21.27;;;10.60;99.90;;;;;;8383795;28;20193;-70
2022/09/26 06:56:08;;;;;;;26.00;19.30;;;10.70;99.90;;;;;;8383464;28;20222;-70
2022/09/26 07:00:13;;;;;;;23.93;18.17;;;10.70;99.90;;;;;;8387608;28;20213;-70
2022/09/26 07:04:14;;;;;;;28.47;19.77;;;10.70;99.90;;;;;;8384340;28;20178;-70
2022/09/26 07:08:15;;;;;;;26.53;20.07;;;10.70;99.90;;;;;;8386224;28;20179;-69
2022/09/26 07:12:16;;;;;;;25.20;16.60;;;10.70;99.90;;;;;;8382136;28;20231;-70
2022/09/26 07:16:17;;;;;;;26.07;18.73;;;10.80;99.90;;;;;;8385689;28;20202;-70
2022/09/26 07:20:19;;;;;;;25.90;18.83;;;10.80;99.90;;;;;;8382896;28;20210;-70
2022/09/26 07:24:20;;;;;;;25.67;18.10;;;10.80;99.90;;;;;;8382682;28;20266;-69
2022/09/26 07:28:21;;;;;;;24.57;18.23;;;10.80;99.90;;;;;;8382462;28;20196;-70
2022/09/26 07:32:28;;;;;;;25.63;17.63;;;10.80;99.90;;;;;;8387280;28;20193;-69
2022/09/26 07:36:30;;;;;;;20.03;16.20;;;10.80;99.90;;;;;;8388278;28;20189;-70
2022/09/26 07:40:31;;;;;;;20.17;15.23;;;10.80;99.90;;;;;;8382389;28;20304;-71
2022/09/26 07:44:32;;;;;;;19.67;15.40;;;10.80;99.90;;;;;;8389805;28;20184;-72
2022/09/26 07:52:54;;;;;;;19.37;14.80;;;10.90;99.90;;;;;;8386102;28;20221;-70
2022/09/26 07:56:55;;;;;;;17.13;13.23;;;10.90;99.90;;;;;;8387259;28;20185;-71
2022/09/26 08:00:56;;;;;;;18.23;14.00;;;10.80;99.90;;;;;;8386552;28;20186;-71
2022/09/26 08:04:58;;;;;;;18.80;14.03;;;10.80;99.90;;;;;;8384536;28;20245;-70
2022/09/26 08:08:59;;;;;;;13.63;11.37;;;10.90;99.90;;;;;;8380659;28;20194;-70
2022/09/26 08:13:00;;;;;;;10.93;9.07;;;10.90;99.90;;;;;;8380081;28;20213;-71
2022/09/26 08:17:01;;;;;;;11.57;8.33;;;10.80;99.90;;;;;;8384813;28;20189;-69
2022/09/26 08:21:05;;;;;;;7.47;6.77;;;10.70;99.90;;;;;;8382555;28;20190;-70
2022/09/26 08:25:07;;;;;;;9.47;7.20;;;10.60;99.90;;;;;;8384657;28;20334;-70
2022/09/26 08:29:10;;;;;;;8.97;7.03;;;10.60;99.90;;;;;;8386605;28;20189;-69
2022/09/26 08:33:11;;;;;;;10.53;7.60;;;10.60;99.90;;;;;;8383854;28;20193;-69
2022/09/26 08:37:13;;;;;;;8.80;7.40;;;10.50;99.90;;;;;;8387171;28;20313;-69
2022/09/26 08:41:46;;;;;;;9.33;7.63;;;10.40;99.90;;;;;;8384255;28;20181;-70
2022/09/26 08:50:17;;;;;;;10.40;8.67;;;10.50;99.90;;;;;;8381325;28;20320;-70
2022/09/26 08:54:19;;;;;;;12.03;7.77;;;10.50;99.90;;;;;;8373729;28;20192;-70
2022/09/26 08:58:30;;;;;;;11.00;7.87;;;10.60;99.90;;;;;;8401154;28;20225;-70
2022/09/26 09:02:39;;;;;;;9.47;8.10;;;10.60;99.90;;;;;;8383212;28;20498;-69
2022/09/26 09:06:40;;;;;;;9.57;7.40;;;10.70;99.90;;;;;;8382383;28;20182;-70
2022/09/26 09:11:35;;;;;;;9.23;7.63;;;10.70;99.90;;;;;;8384239;28;20285;-70
2022/09/26 09:15:55;;;;;;;7.70;6.87;;;10.80;99.90;;;;;;8263736;28;20232;-70
2022/09/26 09:20:21;;;;;;;6.63;5.97;;;11.00;99.90;;;;;;8377592;28;20210;-70
2022/09/26 09:24:31;;;;;;;8.90;6.20;;;11.40;99.90;;;;;;8379555;28;20261;-70
2022/09/26 09:28:50;;;;;;;5.73;5.20;;;11.70;99.90;;;;;;8375510;28;20446;-70
2022/09/26 09:33:00;;;;;;;7.73;5.23;;;12.00;99.90;;;;;;8373063;28;20192;-70
2022/09/26 09:37:11;;;;;;;5.23;4.00;;;12.20;99.90;;;;;;8393248;28;20215;-71
2022/09/26 09:41:44;;;;;;;7.67;4.80;;;12.20;99.90;;;;;;8379217;28;20267;-70
2022/09/26 09:45:49;;;;;;;5.77;4.20;;;12.50;99.90;;;;;;8360080;28;20200;-70
2022/09/26 09:49:51;;;;;;;7.43;3.97;;;13.00;99.90;;;;;;8378116;28;20423;-71
2022/09/26 09:54:08;;;;;;;4.87;3.70;;;14.10;99.90;;;;;;8381152;28;20190;-71
2022/09/26 09:58:22;;;;;;;3.93;3.60;;;14.20;99.90;;;;;;8381687;28;20216;-70
2022/09/26 10:03:00;;;;;;;4.00;3.60;;;14.30;99.90;;;;;;8381925;28;20197;-70
2022/09/26 10:07:02;;;;;;;6.87;3.40;;;14.10;99.90;;;;;;8372769;28;20281;-70
2022/09/26 10:11:11;;;;;;;3.17;2.83;;;13.90;99.90;;;;;;8378953;28;20404;-69
2022/09/26 10:15:20;;;;;;;3.20;2.90;;;14.00;99.90;;;;;;8379001;28;20198;-70
2022/09/26 10:19:33;;;;;;;5.10;2.90;;;14.20;99.90;;;;;;8378636;28;20220;-69
2022/09/26 10:23:44;;;;;;;3.23;2.30;;;14.40;99.90;;;;;;8383825;28;20185;-69
2022/09/26 10:27:55;;;;;;;5.33;3.20;;;14.50;1.00;;;;;;8385468;28;20178;-70
2022/09/26 10:32:00;;;;;;;2.63;2.37;;;14.50;1.00;;;;;;8381628;28;20186;-69
2022/09/26 10:36:26;;;;;;;2.67;1.73;;;15.00;99.90;;;;;;8384400;28;20189;-70
2022/09/26 10:40:44;;;;;;;2.10;1.40;;;15.50;1.00;;;;;;8386738;28;20244;-70
2022/09/26 10:44:49;;;;;;;3.47;1.67;;;15.80;1.00;;;;;;8386125;28;20188;-70
2022/09/26 10:49:00;;;;;;;3.47;1.90;;;15.70;1.00;;;;;;8378910;28;20185;-70
2022/09/26 10:53:08;;;;;;;3.30;1.70;;;15.90;1.00;;;;;;8401483;28;20451;-70
2022/09/26 10:57:20;;;;;;;3.50;1.73;;;16.10;1.00;;;;;;8395803;28;20192;-69
2022/09/26 11:01:25;;;;;;;2.77;1.60;;;15.30;1.00;;;;;;8380765;28;20190;-70
2022/09/26 11:09:49;;;;;;;2.43;1.00;;;14.40;1.00;;;;;;8386555;28;20288;-69
2022/09/26 11:14:05;;;;;;;2.07;1.03;;;14.60;1.00;;;;;;8382526;28;20294;-70
2022/09/26 11:18:19;;;;;;;2.80;1.00;;;14.90;1.00;;;;;;8382116;28;20207;-69
2022/09/26 11:22:33;;;;;;;2.50;0.90;;;15.20;99.90;;;;;;8385529;28;20265;-69
2022/09/26 11:26:48;;;;;;;1.57;0.90;;;15.60;99.90;;;;;;8383712;28;20182;-69
2022/09/26 11:30:55;;;;;;;1.70;0.90;;;16.10;99.90;;;;;;8375422;28;20192;-69
2022/09/26 11:35:01;;;;;;;1.80;1.00;;;16.00;99.90;;;;;;8384075;28;20295;-69
2022/09/26 11:39:29;;;;;;;2.63;0.90;;;15.90;99.90;;;;;;8375461;28;20518;-68
2022/09/26 11:43:39;;;;;;;1.57;1.20;;;16.10;99.90;;;;;;8388262;28;20181;-69
2022/09/26 11:47:58;;;;;;;2.43;1.17;;;16.00;99.90;;;;;;8402091;28;20185;-70
2022/09/26 11:52:22;;;;;;;1.73;0.80;;;16.30;99.90;;;;;;8376463;28;20195;-68
2022/09/26 11:56:49;;;;;;;1.40;0.80;;;16.50;99.90;;;;;;8376659;28;20185;-70
2022/09/26 12:01:03;;;;;;;1.57;1.20;;;16.60;99.90;;;;;;8382545;28;20213;-69
2022/09/26 12:05:41;;;;;;;1.40;1.30;;;16.80;99.90;;;;;;8383376;28;20177;-69
2022/09/26 12:10:06;;;;;;;3.57;1.67;;;16.90;99.90;;;;;;8384661;28;20190;-68
2022/09/26 12:14:22;;;;;;;2.10;1.50;;;17.00;99.90;;;;;;8380396;28;20625;-68
2022/09/26 12:18:26;;;;;;;2.73;1.70;;;17.00;99.90;;;;;;8383094;28;20209;-68
2022/09/26 12:22:33;;;;;;;2.00;1.63;;;16.80;99.90;;;;;;8383485;28;20179;-69
2022/09/26 12:26:48;;;;;;;2.83;1.53;;;17.10;99.90;;;;;;8381930;28;20213;-69
2022/09/26 12:31:04;;;;;;;3.90;1.60;;;17.20;99.90;;;;;;8378603;28;20553;-69
2022/09/26 12:35:20;;;;;;;2.70;1.60;;;17.40;99.90;;;;;;8383577;28;20182;-68
2022/09/26 12:39:30;;;;;;;1.97;1.77;;;17.70;99.90;;;;;;8382795;28;20220;-70
2022/09/26 12:44:06;;;;;;;4.13;1.70;;;17.70;99.90;;;;;;8380619;28;20263;-70
2022/09/26 12:48:18;;;;;;;3.57;1.83;;;17.90;99.90;;;;;;8381822;28;20253;-67
2022/09/26 12:52:32;;;;;;;4.07;2.07;;;17.70;99.90;;;;;;8372108;28;20270;-68
2022/09/26 12:56:41;;;;;;;2.80;1.90;;;17.70;99.90;;;;;;8381833;28;20261;-68
2022/09/26 13:01:22;;;;;;;3.63;2.13;;;17.90;99.90;;;;;;8399153;28;20216;-67
2022/09/26 13:05:47;;;;;;;3.97;1.87;;;18.10;99.90;;;;;;8375084;28;20185;-68
2022/09/26 13:10:03;;;;;;;7.13;1.93;;;17.90;99.90;;;;;;8379928;28;20252;-67
2022/09/26 13:14:13;;;;;;;4.13;2.20;;;17.70;99.90;;;;;;8378310;28;20220;-68
2022/09/26 13:18:25;;;;;;;1.93;1.73;;;17.40;99.90;;;;;;8378995;28;20262;-68
2022/09/26 13:22:40;;;;;;;2.20;1.90;;;17.50;99.90;;;;;;8381306;28;20185;-71
2022/09/26 13:26:47;;;;;;;3.57;1.80;;;17.70;99.90;;;;;;8379646;28;20181;-68
2022/09/26 13:30:56;;;;;;;1.60;1.50;;;18.00;99.90;;;;;;8381027;28;20187;-67
2022/09/26 13:35:05;;;;;;;1.97;1.40;;;17.90;99.90;;;;;;8396376;28;20192;-68
2022/09/26 13:39:28;;;;;;;2.13;1.60;;;17.90;99.90;;;;;;8382664;28;20205;-67
2022/09/26 13:44:06;;;;;;;2.03;1.10;;;18.10;99.90;;;;;;8380591;28;20204;-67
2022/09/26 13:48:26;;;;;;;2.00;1.50;;;17.90;99.90;;;;;;8381323;28;20188;-68
2022/09/26 13:53:05;;;;;;;1.77;1.27;;;17.70;99.90;;;;;;8395897;28;20188;-68
2022/09/26 13:57:26;;;;;;;2.50;1.23;;;17.60;99.90;;;;;;8378251;28;20193;-69
2022/09/26 14:01:27;;;;;;;2.97;1.90;;;17.50;99.90;;;;;;8379619;28;20192;-70
2022/09/26 14:05:48;;;;;;;1.43;1.33;;;17.50;99.90;;;;;;8387351;28;20177;-68
2022/09/26 14:10:18;;;;;;;1.70;1.27;;;17.30;99.90;;;;;;8384604;28;20181;-69
2022/09/26 14:14:23;;;;;;;2.80;1.30;;;17.30;99.90;;;;;;8397687;28;20220;-68
2022/09/26 14:18:49;;;;;;;4.93;1.33;;;17.30;99.90;;;;;;8384916;28;20219;-67
2022/09/26 14:22:53;;;;;;;2.10;1.20;;;17.30;99.90;;;;;;8383974;28;20255;-68
2022/09/26 14:27:02;;;;;;;1.30;1.20;;;17.30;99.90;;;;;;8386795;28;20177;-67
2022/09/26 14:31:21;;;;;;;3.10;1.10;;;17.30;99.90;;;;;;8386338;28;20226;-68
2022/09/26 14:35:29;;;;;;;1.93;1.30;;;17.10;99.90;;;;;;8387096;28;20192;-69
2022/09/26 14:39:40;;;;;;;2.80;1.10;;;17.10;99.90;;;;;;8377036;28;20216;-68
2022/09/26 14:43:41;;;;;;;1.30;1.07;;;17.10;99.90;;;;;;8381553;28;20220;-67
2022/09/26 14:47:44;;;;;;;1.83;1.10;;;17.00;99.90;;;;;;8382234;28;20181;-68
2022/09/26 14:51:48;;;;;;;2.27;1.83;;;16.90;99.90;;;;;;8382485;28;20185;-68
2022/09/26 14:56:05;;;;;;;2.13;1.30;;;16.80;99.90;;;;;;8379693;28;20185;-68
2022/09/26 15:00:39;;;;;;;1.60;1.20;;;16.80;99.90;;;;;;8399326;28;20233;-68
2022/09/26 15:04:42;;;;;;;2.17;1.30;;;16.70;99.90;;;;;;8381366;28;20208;-67
2022/09/26 15:08:46;;;;;;;1.27;1.10;;;16.60;99.90;;;;;;8382233;28;20177;-67
2022/09/26 15:13:16;;;;;;;2.90;1.30;;;16.40;99.90;;;;;;8381771;28;20233;-68
2022/09/26 15:17:23;;;;;;;4.20;1.40;;;16.30;99.90;;;;;;8375040;28;20327;-66
2022/09/26 15:21:57;;;;;;;2.10;1.77;;;16.10;99.90;;;;;;8398276;28;20181;-67
2022/09/26 15:26:01;;;;;;;2.97;1.30;;;15.90;99.90;;;;;;8371307;28;20216;-69
2022/09/26 15:30:17;;;;;;;2.27;1.30;;;15.70;99.90;;;;;;8382349;28;20193;-68
2022/09/26 15:34:33;;;;;;;2.30;1.53;;;15.40;1.00;;;;;;8383539;28;20185;-69
2022/09/26 15:38:34;;;;;;;2.00;1.20;;;15.20;1.00;;;;;;8384149;28;20299;-69
2022/09/26 15:46:57;;;;;;;3.00;1.80;;;15.20;1.00;;;;;;8385527;28;20285;-68
2022/09/26 15:51:13;;;;;;;3.43;1.50;;;15.40;16.30;;;;;;8383269;28;20234;-68
2022/09/26 15:55:22;;;;;;;1.43;1.33;;;15.50;46.50;;;;;;8381154;28;20186;-68
2022/09/26 15:59:37;;;;;;;3.73;1.57;;;15.60;48.50;;;;;;8387389;28;20216;-68
2022/09/26 16:03:53;;;;;;;1.77;1.40;;;15.50;99.90;;;;;;8380253;28;20187;-69
2022/09/26 16:07:57;;;;;;;2.73;1.30;;;15.30;99.90;;;;;;8398904;28;20268;-67
2022/09/26 16:12:05;;;;;;;2.13;1.70;;;15.00;99.90;;;;;;8388921;28;21208;-68
2022/09/26 16:16:12;;;;;;;3.23;1.97;;;14.80;1.00;;;;;;8398727;28;20209;-67
2022/09/26 16:20:15;;;;;;;2.30;1.80;;;14.60;1.00;;;;;;8376497;28;20554;-69
2022/09/26 16:24:33;;;;;;;1.83;1.70;;;14.20;5.90;;;;;;8381821;28;20177;-68
2022/09/26 16:28:43;;;;;;;2.13;1.90;;;13.90;99.90;;;;;;8382996;28;20193;-68
2022/09/26 16:32:44;;;;;;;2.43;1.90;;;13.60;99.90;;;;;;8383712;28;20816;-68
2022/09/26 16:36:45;;;;;;;3.50;1.77;;;13.30;50.10;;;;;;8384197;28;20189;-67
2022/09/26 16:40:54;;;;;;;2.97;2.40;;;12.90;1.00;;;;;;8382848;28;20220;-67
2022/09/26 16:44:55;;;;;;;4.90;4.40;;;12.70;1.00;;;;;;8382439;28;20177;-68
2022/09/26 16:48:58;;;;;;;6.57;4.60;;;12.50;99.90;;;;;;8378375;28;20211;-67
2022/09/26 16:53:01;;;;;;;4.23;3.83;;;12.30;1.00;;;;;;8384206;28;20220;-67
2022/09/26 16:57:04;;;;;;;4.43;3.73;;;12.10;99.90;;;;;;8379415;28;20193;-68
2022/09/26 17:05:29;;;;;;;4.30;2.43;;;11.50;99.90;;;;;;8381967;28;20191;-68
2022/09/26 17:09:30;;;;;;;7.23;4.70;;;11.20;99.90;;;;;;8381628;28;20192;-68
2022/09/26 17:13:34;;;;;;;7.10;5.00;;;11.00;1.00;;;;;;8380743;28;20227;-67
2022/09/26 17:17:35;;;;;;;6.10;4.70;;;10.80;8.50;;;;;;8394020;28;20208;-67
2022/09/26 17:21:37;;;;;;;5.57;4.30;;;10.70;1.00;;;;;;8377744;28;20186;-68
2022/09/26 17:25:42;;;;;;;6.03;4.70;;;10.50;1.00;;;;;;8379774;28;20186;-68
2022/09/26 17:29:47;;;;;;;12.37;7.83;;;10.30;99.90;;;;;;8382113;28;20195;-66
2022/09/26 17:33:51;;;;;;;10.30;8.20;;;10.30;99.90;;;;;;8378561;28;20181;-69
2022/09/26 17:37:53;;;;;;;12.87;9.90;;;10.20;99.90;;;;;;8379354;28;20248;-68
2022/09/26 17:41:58;;;;;;;13.57;9.77;;;10.10;99.90;;;;;;8379312;28;20188;-69
2022/09/26 17:46:03;;;;;;;15.33;10.50;;;10.00;99.90;;;;;;8380444;28;20178;-68
2022/09/26 17:50:05;;;;;;;12.87;8.87;;;9.90;99.90;;;;;;8395157;28;20284;-68
2022/09/26 17:54:09;;;;;;;11.33;9.73;;;9.80;99.90;;;;;;8369768;28;20266;-68
2022/09/26 17:58:09;;;;;;;13.83;10.03;;;9.70;99.90;;;;;;8383230;28;20235;-68
2022/09/26 18:02:23;;;;;;;17.53;12.40;;;9.60;99.90;;;;;;8379957;28;20268;-68
2022/09/26 18:06:30;;;;;;;17.83;14.10;;;9.50;99.90;;;;;;8376564;28;20181;-68
2022/09/26 18:10:34;;;;;;;18.57;13.43;;;9.50;99.90;;;;;;8379039;28;20301;-68
2022/09/26 18:14:35;;;;;;;15.27;12.30;;;9.40;99.90;;;;;;8377614;28;20224;-67
2022/09/26 18:18:36;;;;;;;12.10;8.50;;;9.30;99.90;;;;;;8372556;28;20209;-67
2022/09/26 18:22:38;;;;;;;10.87;9.53;;;9.20;99.90;;;;;;8377568;28;20174;-67
2022/09/26 18:26:46;;;;;;;13.87;11.33;;;9.10;99.90;;;;;;8376981;28;20177;-68
2022/09/26 18:30:50;;;;;;;16.33;13.50;;;9.20;99.90;;;;;;8393030;28;20189;-68
2022/09/26 18:34:51;;;;;;;13.00;10.20;;;9.20;99.90;;;;;;8375385;28;20186;-69
2022/09/26 18:38:55;;;;;;;12.67;11.20;;;9.10;99.90;;;;;;8378183;28;20209;-67
2022/09/26 18:42:57;;;;;;;11.20;10.07;;;9.00;99.90;;;;;;8396150;28;20434;-68
2022/09/26 18:46:57;;;;;;;12.37;10.97;;;8.80;99.90;;;;;;8381016;28;20264;-70
2022/09/26 18:50:59;;;;;;;14.53;12.63;;;8.70;99.90;;;;;;8386703;28;20260;-68
2022/09/26 18:59:19;;;;;;;25.83;17.13;;;9.00;99.90;;;;;;8389047;28;20243;-66
2022/09/26 19:03:22;;;;;;;20.50;16.87;;;9.20;99.90;;;;;;8385542;28;20181;-66
2022/09/26 19:07:23;;;;;;;21.23;15.33;;;9.30;99.90;;;;;;8384957;28;20277;-67
2022/09/26 19:11:25;;;;;;;21.10;15.57;;;9.40;99.90;;;;;;8383569;28;20197;-67
2022/09/26 19:15:27;;;;;;;23.43;16.73;;;9.50;99.90;;;;;;8375376;28;20212;-66
2022/09/26 19:19:31;;;;;;;22.00;17.07;;;9.60;99.90;;;;;;8386068;28;20217;-67
2022/09/26 19:23:35;;;;;;;22.50;18.20;;;9.70;99.90;;;;;;8384741;28;20192;-67
2022/09/26 19:27:47;;;;;;;24.77;19.20;;;9.80;99.90;;;;;;8388234;28;20184;-67
2022/09/26 19:31:49;;;;;;;22.20;16.47;;;9.80;99.90;;;;;;8397065;28;20185;-67
2022/09/26 19:35:50;;;;;;;24.03;17.70;;;9.80;99.90;;;;;;8383879;28;20178;-67
2022/09/26 19:39:51;;;;;;;22.33;17.10;;;9.90;99.90;;;;;;8381949;28;20213;-66
2022/09/26 19:43:51;;;;;;;20.33;16.93;;;9.90;99.90;;;;;;8384331;28;20192;-67
2022/09/26 19:47:54;;;;;;;23.77;17.27;;;9.90;99.90;;;;;;8382310;28;20208;-67
2022/09/26 19:51:55;;;;;;;19.60;16.10;;;10.00;99.90;;;;;;8383976;28;20207;-68
2022/09/26 19:55:57;;;;;;;25.50;16.77;;;10.00;99.90;;;;;;8386321;28;20188;-67
2022/09/26 19:59:58;;;;;;;18.77;14.47;;;10.00;99.90;;;;;;8384694;28;20219;-68
2022/09/26 20:03:58;;;;;;;21.20;16.13;;;10.10;99.90;;;;;;8381879;28;20208;-67
2022/09/26 20:07:59;;;;;;;21.83;16.90;;;10.10;99.90;;;;;;8381901;28;20200;-67
2022/09/26 20:12:00;;;;;;;20.20;15.67;;;10.10;99.90;;;;;;8382024;28;20625;-67
2022/09/26 20:16:01;;;;;;;19.53;15.33;;;10.00;99.90;;;;;;8376742;28;20210;-67
2022/09/26 20:20:04;;;;;;;17.47;14.10;;;9.90;99.90;;;;;;8383099;28;20208;-67
2022/09/26 20:24:11;;;;;;;18.53;14.17;;;9.80;99.90;;;;;;8378888;28;20181;-67
2022/09/26 20:28:14;;;;;;;17.17;13.97;;;9.70;99.90;;;;;;8398622;28;20264;-68
2022/09/26 20:32:15;;;;;;;18.27;14.57;;;9.60;99.90;;;;;;8380772;28;20276;-69
2022/09/26 20:36:25;;;;;;;16.13;14.43;;;9.50;99.90;;;;;;8382812;28;20219;-67
2022/09/26 20:40:26;;;;;;;18.87;14.00;;;9.40;99.90;;;;;;8381167;28;20215;-67
2022/09/26 20:44:32;;;;;;;18.63;14.40;;;9.40;99.90;;;;;;8383978;28;20190;-67
2022/09/26 20:48:35;;;;;;;18.17;14.03;;;9.30;99.90;;;;;;8381052;28;20197;-67
2022/09/26 20:52:36;;;;;;;17.20;13.37;;;9.30;99.90;;;;;;8383720;28;20217;-67
2022/09/26 20:56:40;;;;;;;15.97;13.07;;;9.20;99.90;;;;;;8382768;28;20185;-67
2022/09/26 21:00:42;;;;;;;17.13;12.93;;;9.10;99.90;;;;;;8380522;28;20223;-69
2022/09/26 21:04:42;;;;;;;14.63;12.37;;;9.00;99.90;;;;;;8381331;28;20227;-68
2022/09/26 21:08:46;;;;;;;12.63;10.97;;;8.90;99.90;;;;;;8378905;28;20189;-69
2022/09/26 21:12:47;;;;;;;11.83;9.47;;;8.80;99.90;;;;;;8382782;28;20521;-68
2022/09/26 21:16:50;;;;;;;11.50;9.53;;;8.70;99.90;;;;;;8380572;28;20205;-68
2022/09/26 21:20:52;;;;;;;12.80;10.30;;;8.60;99.90;;;;;;8380377;28;20209;-68
2022/09/26 21:24:54;;;;;;;12.73;9.30;;;8.50;99.90;;;;;;8380605;28;20193;-68
2022/09/26 21:28:55;;;;;;;12.37;9.30;;;8.30;99.90;;;;;;8378260;28;20242;-68
2022/09/26 21:32:57;;;;;;;14.97;12.03;;;8.20;99.90;;;;;;8382405;28;20216;-68
2022/09/26 21:37:00;;;;;;;14.33;11.90;;;8.20;99.90;;;;;;8384480;28;20193;-68
2022/09/26 21:41:02;;;;;;;17.20;12.60;;;8.30;99.90;;;;;;8380188;28;20205;-68
2022/09/26 21:45:07;;;;;;;16.10;13.13;;;8.30;99.90;;;;;;8384406;28;20193;-68